Time;durP1;ratioP1;P1;durP2;ratioP2;P2;SDS_P1;SDS_P2;PMS_P1;PMS_P2;Temp;Humidity;BMP_temperature;BMP_pressure;BME280_temperature;BME280_humidity;BME280_pressure;Samples;Min_cycle;Max_cycle;Signal;HPM_P1;HPM_P2
2023/03/05 00:00:15;;;;;;;29.30;23.90;;;;;;;0.06;89.25;97481.44;107490;1276;22574;-89
2023/03/05 00:03:03;;;;;;;29.40;24.20;;;;;;;0.07;89.38;97479.38;107481;1276;22516;-89
2023/03/05 00:05:33;;;;;;;22.90;20.30;;;;;;;0.09;89.13;97480.23;107487;1276;22581;-89
2023/03/05 00:08:01;;;;;;;24.10;21.50;;;;;;;0.10;89.77;97477.59;107488;1276;22531;-90
2023/03/05 00:10:29;;;;;;;24.60;21.70;;;;;;;0.06;89.72;97476.04;107347;1276;24340;-91
2023/03/05 00:12:57;;;;;;;29.70;25.50;;;;;;;0.03;89.75;97479.19;107572;1276;22523;-90
2023/03/05 00:15:25;;;;;;;28.20;24.40;;;;;;;0.00;89.62;97479.50;107403;1276;24321;-89
2023/03/05 00:17:53;;;;;;;34.30;25.30;;;;;;;-0.01;89.62;97478.36;107417;1276;25483;-90
2023/03/05 00:20:21;;;;;;;29.20;25.10;;;;;;;0.02;89.57;97477.95;107345;1267;24279;-90
2023/03/05 00:22:48;;;;;;;31.00;27.50;;;;;;;0.05;89.51;97478.03;107347;1276;22761;-89
2023/03/05 00:25:16;;;;;;;30.60;27.40;;;;;;;0.06;89.62;97474.88;107510;1276;24115;-89
2023/03/05 00:27:44;;;;;;;27.50;24.50;;;;;;;0.03;89.88;97468.68;108110;1276;22564;-87
2023/03/05 00:30:13;;;;;;;25.70;20.10;;;;;;;-0.04;90.02;97468.09;110097;1276;24378;-88
2023/03/05 00:32:41;;;;;;;25.30;18.80;;;;;;;-0.08;89.97;97465.80;110366;1274;24179;-86
2023/03/05 00:35:09;;;;;;;21.60;17.30;;;;;;;-0.08;90.07;97463.11;109025;1276;22542;-91
2023/03/05 00:37:37;;;;;;;22.10;17.00;;;;;;;-0.09;90.35;97461.55;108235;1276;22611;-90
2023/03/05 00:40:07;;;;;;;26.90;18.80;;;;;;;-0.15;90.16;97456.69;107989;1276;22797;-89
2023/03/05 00:42:37;;;;;;;23.80;19.20;;;;;;;-0.20;89.93;97454.18;108025;1276;22534;-91
2023/03/05 00:45:09;;;;;;;23.00;19.00;;;;;;;-0.25;90.07;97446.80;108185;1276;22535;-91
2023/03/05 00:47:38;;;;;;;22.40;16.30;;;;;;;-0.24;90.09;97448.13;107459;1276;24312;-90
2023/03/05 00:50:08;;;;;;;23.20;19.90;;;;;;;-0.25;89.87;97446.69;107425;1276;25411;-90
2023/03/05 00:52:36;;;;;;;24.80;21.80;;;;;;;-0.25;89.90;97448.85;107796;1276;22537;-89
2023/03/05 00:55:04;;;;;;;21.80;18.70;;;;;;;-0.26;89.86;97449.10;107101;1276;25693;-87
2023/03/05 00:57:32;;;;;;;21.50;19.20;;;;;;;-0.28;89.75;97446.20;108126;1276;22566;-92
2023/03/05 01:00:00;;;;;;;23.20;20.20;;;;;;;-0.26;89.56;97443.70;108311;1276;22638;-89
2023/03/05 01:02:28;;;;;;;19.80;17.20;;;;;;;-0.27;89.72;97440.08;107621;1276;25409;-88
2023/03/05 01:04:57;;;;;;;22.70;18.40;;;;;;;-0.26;89.75;97434.48;108658;1276;22509;-92
2023/03/05 01:07:25;;;;;;;22.80;18.40;;;;;;;-0.26;89.75;97436.48;108255;1276;25274;-91
2023/03/05 01:09:53;;;;;;;20.20;18.00;;;;;;;-0.32;89.33;97431.69;107782;1276;22530;-89
2023/03/05 01:12:21;;;;;;;21.00;16.50;;;;;;;-0.37;89.23;97430.54;108302;1276;22650;-91
2023/03/05 01:14:49;;;;;;;19.90;15.80;;;;;;;-0.41;89.26;97429.58;109502;1276;22556;-91
2023/03/05 01:17:18;;;;;;;18.90;16.50;;;;;;;-0.43;89.26;97427.60;109861;1250;22576;-91
2023/03/05 01:19:45;;;;;;;19.60;16.80;;;;;;;-0.43;89.28;97429.11;108745;1278;22904;-89
2023/03/05 01:22:13;;;;;;;18.60;16.20;;;;;;;-0.47;89.14;97436.48;108682;1277;22557;-90
2023/03/05 01:24:41;;;;;;;19.00;14.70;;;;;;;-0.51;88.97;97430.52;108197;1277;23926;-90
2023/03/05 01:27:09;;;;;;;17.90;15.10;;;;;;;-0.53;88.84;97434.50;108621;1277;23800;-91
2023/03/05 01:29:37;;;;;;;21.10;16.10;;;;;;;-0.58;88.79;97430.63;108203;1277;22671;-90
2023/03/05 01:32:06;;;;;;;18.20;15.60;;;;;;;-0.60;88.91;97432.84;107737;1277;25486;-90
2023/03/05 01:34:36;;;;;;;17.90;15.30;;;;;;;-0.65;88.90;97431.60;108001;1277;22497;-91
2023/03/05 01:37:04;;;;;;;18.80;15.10;;;;;;;-0.68;88.91;97435.63;107959;1278;25441;-88
2023/03/05 01:39:33;;;;;;;18.60;15.50;;;;;;;-0.69;88.91;97436.61;108250;1278;22546;-92
2023/03/05 01:42:02;;;;;;;18.50;15.50;;;;;;;-0.67;89.02;97440.73;108023;1278;22763;-89
2023/03/05 01:44:32;;;;;;;18.50;16.00;;;;;;;-0.71;88.83;97436.86;107385;1277;22648;-86
2023/03/05 01:47:00;;;;;;;19.50;16.30;;;;;;;-0.74;88.62;97433.78;107173;1278;22533;-86
2023/03/05 01:49:38;;;;;;;22.50;17.90;;;;;;;-0.76;88.71;97435.64;107083;1277;23149;-87
2023/03/05 01:52:10;;;;;;;21.10;16.60;;;;;;;-0.76;88.38;97428.89;107169;1278;24438;-86
2023/03/05 01:54:42;;;;;;;26.00;17.50;;;;;;;-0.75;88.35;97433.70;107071;1277;25514;-86
2023/03/05 01:57:20;;;;;;;22.70;18.50;;;;;;;-0.75;88.06;97428.95;107274;1277;22525;-87
2023/03/05 01:59:55;;;;;;;22.90;17.10;;;;;;;-0.76;88.23;97427.77;107292;1278;25360;-85
2023/03/05 02:02:23;;;;;;;;;;;;;;;-0.76;87.54;97428.02;107461;1278;22515;-90
2023/03/05 02:05:01;;;;;;;17.50;14.80;;;;;;;-0.82;86.90;97427.38;107106;1278;22609;-90
2023/03/05 02:07:31;;;;;;;19.00;14.20;;;;;;;-0.85;86.40;97426.64;107445;1278;22643;-88
2023/03/05 02:09:59;;;;;;;17.00;13.90;;;;;;;-0.88;86.53;97424.06;107188;1277;25352;-90
2023/03/05 02:12:27;;;;;;;17.50;14.50;;;;;;;-0.87;87.21;97424.32;106932;1278;22630;-90
2023/03/05 02:14:58;;;;;;;18.70;14.90;;;;;;;-0.83;87.38;97422.08;107179;1278;25862;-90
2023/03/05 02:17:27;;;;;;;18.60;14.90;;;;;;;-0.82;87.42;97421.27;107117;1277;25420;-89
2023/03/05 02:20:03;;;;;;;17.30;14.50;;;;;;;-0.81;87.29;97420.11;107184;1278;22483;-91
2023/03/05 02:22:31;;;;;;;18.40;14.80;;;;;;;-0.81;87.36;97415.98;107154;1278;24212;-91
2023/03/05 02:25:00;;;;;;;19.10;14.30;;;;;;;-0.79;87.43;97413.64;107498;1278;22534;-90
2023/03/05 02:27:34;;;;;;;17.90;14.90;;;;;;;-0.75;87.41;97410.85;108306;1278;25282;-91
2023/03/05 02:30:02;;;;;;;18.40;14.40;;;;;;;-0.70;87.04;97409.15;107752;1277;22861;-90
2023/03/05 02:32:31;;;;;;;17.90;14.40;;;;;;;-0.65;86.96;97407.31;108258;1278;22942;-91
2023/03/05 02:34:59;;;;;;;18.80;15.30;;;;;;;-0.61;86.86;97410.61;108052;1277;22791;-91
2023/03/05 02:37:27;;;;;;;18.00;15.40;;;;;;;-0.62;86.62;97409.42;107114;1277;23072;-90
2023/03/05 02:39:56;;;;;;;19.90;16.70;;;;;;;-0.64;86.59;97405.73;107371;1277;22528;-92
2023/03/05 02:42:24;;;;;;;20.60;17.40;;;;;;;-0.63;86.96;97401.74;108516;1277;22888;-92
2023/03/05 02:44:52;;;;;;;18.50;15.90;;;;;;;-0.61;86.55;97401.55;109495;1278;22085;-89
2023/03/05 02:47:20;;;;;;;20.20;15.40;;;;;;;-0.63;86.31;97405.86;109325;1278;22570;-91
2023/03/05 02:49:48;;;;;;;19.20;16.40;;;;;;;-0.66;85.91;97403.21;107522;1278;22535;-90
2023/03/05 02:52:19;;;;;;;18.70;16.10;;;;;;;-0.69;85.99;97400.42;107255;1278;25658;-91
2023/03/05 02:54:47;;;;;;;19.70;15.90;;;;;;;-0.67;86.18;97402.47;107042;1277;22595;-93
2023/03/05 02:57:16;;;;;;;19.60;15.10;;;;;;;-0.63;85.93;97392.59;107284;1278;22574;-90
2023/03/05 02:59:45;;;;;;;20.50;16.10;;;;;;;-0.61;85.78;97394.47;107207;1278;23000;-89
2023/03/05 03:02:14;;;;;;;19.40;16.40;;;;;;;-0.61;85.93;97393.30;109500;1278;22551;-86
2023/03/05 03:04:43;;;;;;;19.50;16.60;;;;;;;-0.61;86.01;97391.86;110066;1277;22561;-88
2023/03/05 03:07:13;;;;;;;18.50;15.80;;;;;;;-0.64;85.45;97392.41;109771;1277;22733;-88
2023/03/05 03:09:41;;;;;;;17.70;15.10;;;;;;;-0.67;85.67;97390.09;109861;1277;22578;-87
2023/03/05 03:12:13;;;;;;;19.00;16.60;;;;;;;-0.67;85.74;97380.84;110201;1278;22585;-85
2023/03/05 03:14:41;;;;;;;22.40;20.00;;;;;;;-0.65;85.80;97378.84;109565;1277;25976;-87
2023/03/05 03:17:15;;;;;;;16.40;14.50;;;;;;;-0.65;85.39;97380.80;110114;1278;22556;-87
2023/03/05 03:19:44;;;;;;;;;;;;;;;-0.65;85.43;97383.61;110439;1277;22550;-90
2023/03/05 03:22:15;;;;;;;21.00;15.90;;;;;;;-0.63;85.78;97382.91;110442;1277;22561;-89
2023/03/05 03:24:43;;;;;;;18.80;15.90;;;;;;;-0.52;85.70;97388.91;110186;1278;22640;-88
2023/03/05 03:27:11;;;;;;;18.70;16.60;;;;;;;-0.48;85.50;97393.10;110222;1277;22270;-87
2023/03/05 03:29:39;;;;;;;19.60;16.90;;;;;;;-0.48;85.30;97385.90;110473;1278;22572;-90
2023/03/05 03:32:07;;;;;;;19.50;17.40;;;;;;;-0.47;85.50;97381.80;108363;1278;22537;-91
2023/03/05 03:34:35;;;;;;;19.90;17.40;;;;;;;-0.48;85.38;97390.58;108016;1278;22689;-92
2023/03/05 03:37:03;;;;;;;21.50;19.10;;;;;;;-0.48;85.44;97387.44;107695;1278;23892;-89
2023/03/05 03:39:31;;;;;;;19.90;17.80;;;;;;;-0.51;85.27;97384.17;107320;1276;22523;-90
2023/03/05 03:42:50;;;;;;;21.70;19.50;;;;;;;-0.55;85.13;97377.79;107564;1277;23159;-89
2023/03/05 03:45:21;;;;;;;24.20;20.20;;;;;;;-0.59;85.46;97379.69;107959;1276;22652;-91
2023/03/05 03:47:50;;;;;;;24.60;20.00;;;;;;;-0.61;85.14;97369.75;108057;1278;22716;-92
2023/03/05 03:50:20;;;;;;;23.00;18.30;;;;;;;-0.68;84.81;97370.64;108296;1277;25291;-88
2023/03/05 03:52:48;;;;;;;22.30;16.40;;;;;;;-0.73;84.75;97372.73;108161;1278;22544;-91
2023/03/05 03:55:17;;;;;;;20.10;16.70;;;;;;;-0.77;84.41;97369.23;109013;1278;22565;-93
2023/03/05 04:02:13;;;;;;;18.10;15.50;;;;;;;-0.88;84.01;97374.05;109550;1248;22516;-93
2023/03/05 04:04:41;;;;;;;19.40;15.80;;;;;;;-0.97;83.89;97373.06;108599;1277;22483;-92
2023/03/05 04:07:09;;;;;;;16.90;14.40;;;;;;;-1.02;83.99;97368.61;108278;1277;23043;-93
2023/03/05 04:09:37;;;;;;;16.00;13.30;;;;;;;-1.06;84.08;97363.54;108770;1277;23339;-92
2023/03/05 04:12:06;;;;;;;18.20;14.00;;;;;;;-1.07;84.06;97368.64;108135;1277;26650;-92
2023/03/05 04:14:34;;;;;;;16.80;15.00;;;;;;;-1.10;83.99;97363.62;109051;1277;22549;-92
2023/03/05 04:17:02;;;;;;;18.60;16.60;;;;;;;-1.14;83.21;97364.64;109227;1278;22527;-94
2023/03/05 04:19:30;;;;;;;18.20;15.30;;;;;;;-1.17;83.48;97364.98;108976;1277;24304;-92
2023/03/05 04:21:58;;;;;;;15.90;13.40;;;;;;;-1.18;83.13;97362.64;108500;1277;22555;-91
2023/03/05 04:24:26;;;;;;;16.90;13.20;;;;;;;-1.18;82.89;97362.57;108257;1277;22645;-91
2023/03/05 04:26:54;;;;;;;17.20;14.30;;;;;;;-1.16;81.46;97368.58;108798;1278;22972;-88
2023/03/05 04:29:22;;;;;;;18.50;14.70;;;;;;;-1.20;81.52;97362.08;107518;1278;22550;-91
2023/03/05 04:31:50;;;;;;;17.10;14.70;;;;;;;-1.21;81.60;97353.84;108649;1278;22540;-89
2023/03/05 04:34:18;;;;;;;17.10;13.60;;;;;;;-1.23;81.33;97351.33;107833;1278;24320;-90
2023/03/05 04:36:46;;;;;;;17.30;14.20;;;;;;;-1.26;81.25;97348.67;107506;1278;22649;-90
2023/03/05 04:39:14;;;;;;;17.40;15.30;;;;;;;-1.31;80.78;97345.79;107220;1279;22539;-88
2023/03/05 04:41:42;;;;;;;18.10;13.00;;;;;;;-1.36;80.33;97344.73;107158;1278;24335;-90
2023/03/05 04:44:10;;;;;;;18.50;13.90;;;;;;;-1.40;80.77;97338.91;107401;1279;25516;-90
2023/03/05 04:46:39;;;;;;;15.00;13.30;;;;;;;-1.42;81.23;97332.84;107282;1279;25265;-90
2023/03/05 04:49:07;;;;;;;19.30;13.40;;;;;;;-1.43;80.92;97333.30;107311;1279;23229;-89
2023/03/05 04:51:35;;;;;;;19.20;14.10;;;;;;;-1.46;79.63;97336.52;107506;1278;23847;-90
2023/03/05 04:54:03;;;;;;;16.00;12.50;;;;;;;-1.50;80.07;97335.33;107428;1279;24305;-90
2023/03/05 04:56:31;;;;;;;13.70;12.20;;;;;;;-1.52;79.07;97331.21;107773;1279;25437;-91
2023/03/05 04:59:01;;;;;;;14.50;12.00;;;;;;;-1.56;79.36;97328.97;108699;1278;22559;-90
2023/03/05 05:01:31;;;;;;;12.00;9.80;;;;;;;-1.60;78.98;97327.54;108307;1279;24053;-91
2023/03/05 05:04:00;;;;;;;11.10;8.90;;;;;;;-1.59;78.17;97328.46;107213;1279;25441;-88
2023/03/05 05:06:28;;;;;;;12.50;8.30;;;;;;;-1.62;78.43;97325.17;107185;1279;25349;-87
2023/03/05 05:08:57;;;;;;;16.30;8.00;;;;;;;-1.64;77.28;97318.20;107046;1279;22625;-89
2023/03/05 05:11:25;;;;;;;13.40;10.00;;;;;;;-1.67;78.04;97313.23;106991;1278;22639;-87
2023/03/05 05:13:53;;;;;;;16.60;11.50;;;;;;;-1.69;78.06;97310.29;107203;1278;25713;-89
2023/03/05 05:16:21;;;;;;;18.80;11.70;;;;;;;-1.70;77.69;97312.91;107810;1279;22677;-88
2023/03/05 05:18:49;;;;;;;15.60;10.50;;;;;;;-1.73;77.43;97310.21;108570;1279;22572;-85
2023/03/05 05:21:19;;;;;;;14.70;12.00;;;;;;;-1.75;76.57;97313.13;107732;1279;25437;-89
2023/03/05 05:23:47;;;;;;;14.50;11.60;;;;;;;-1.77;77.21;97311.34;107382;1279;23503;-89
2023/03/05 05:26:15;;;;;;;15.20;11.40;;;;;;;-1.77;77.38;97313.34;107085;1278;23165;-89
2023/03/05 05:28:43;;;;;;;16.60;13.30;;;;;;;-1.78;77.59;97318.30;107084;1278;23028;-89
2023/03/05 05:31:14;;;;;;;14.90;13.10;;;;;;;-1.76;77.70;97326.17;107188;1278;24224;-90
2023/03/05 05:33:43;;;;;;;16.50;14.30;;;;;;;-1.75;77.40;97332.58;107068;1278;23458;-88
2023/03/05 05:36:17;;;;;;;17.60;13.50;;;;;;;-1.75;77.75;97340.91;107081;1260;24480;-89
2023/03/05 05:38:46;;;;;;;13.70;12.10;;;;;;;-1.73;77.35;97341.48;107111;1278;22556;-87
2023/03/05 05:41:16;;;;;;;16.30;12.80;;;;;;;-1.66;77.32;97338.91;107422;1278;22730;-86
2023/03/05 05:43:44;;;;;;;14.70;12.50;;;;;;;-1.62;77.15;97342.56;107082;1278;22539;-87
2023/03/05 05:46:18;;;;;;;18.60;13.90;;;;;;;-1.58;77.11;97350.23;107035;1279;22791;-88
2023/03/05 05:48:46;;;;;;;22.70;16.80;;;;;;;-1.58;76.68;97349.81;106974;1279;23518;-89
2023/03/05 05:51:20;;;;;;;18.90;15.40;;;;;;;-1.63;76.85;97349.34;107182;1279;22635;-87
2023/03/05 05:53:48;;;;;;;17.20;15.00;;;;;;;-1.64;76.84;97355.30;108573;1278;22875;-87
2023/03/05 05:56:17;;;;;;;18.10;16.10;;;;;;;-1.64;76.52;97358.15;108662;1279;22527;-87
2023/03/05 05:58:47;;;;;;;20.60;16.20;;;;;;;-1.64;76.85;97352.55;108616;1279;22540;-89
2023/03/05 06:01:26;;;;;;;17.30;14.80;;;;;;;-1.65;76.08;97350.61;107278;1279;22526;-89
2023/03/05 06:03:55;;;;;;;21.80;17.80;;;;;;;-1.72;76.86;97342.73;107582;1279;22739;-90
2023/03/05 06:06:25;;;;;;;20.00;17.00;;;;;;;-1.68;76.80;97339.47;107523;1279;22539;-90
2023/03/05 06:08:54;;;;;;;23.70;18.80;;;;;;;-1.65;77.18;97336.73;108339;1279;22602;-89
2023/03/05 06:11:22;;;;;;;24.30;21.20;;;;;;;-1.61;77.60;97334.42;107922;1267;22613;-88
2023/03/05 06:13:51;;;;;;;27.50;24.10;;;;;;;-1.57;77.66;97333.29;107335;1279;25344;-90
2023/03/05 06:16:22;;;;;;;27.90;24.60;;;;;;;-1.55;77.59;97330.00;107992;1279;22571;-89
2023/03/05 06:18:51;;;;;;;21.20;18.90;;;;;;;-1.55;77.75;97330.58;107327;1279;24291;-89
2023/03/05 06:21:23;;;;;;;19.10;17.10;;;;;;;-1.57;77.88;97332.19;107000;1279;25345;-90
2023/03/05 06:23:51;;;;;;;17.70;14.70;;;;;;;-1.57;78.09;97333.98;107099;1278;22527;-90
2023/03/05 06:26:21;;;;;;;19.50;17.40;;;;;;;-1.53;78.16;97338.23;107281;1279;23414;-90
2023/03/05 06:28:49;;;;;;;21.70;19.50;;;;;;;-1.51;78.23;97335.89;107562;1279;22722;-89
2023/03/05 06:31:25;;;;;;;25.70;23.00;;;;;;;-1.50;78.44;97333.15;107091;1279;22553;-88
2023/03/05 06:33:56;;;;;;;25.80;23.10;;;;;;;-1.50;78.62;97337.24;107069;1279;25541;-89
2023/03/05 06:36:26;;;;;;;29.10;26.10;;;;;;;-1.52;78.93;97332.88;107108;1279;25368;-91
2023/03/05 06:38:55;;;;;;;28.80;25.90;;;;;;;-1.52;78.86;97328.48;107159;1279;22649;-90
2023/03/05 06:41:28;;;;;;;27.70;24.90;;;;;;;-1.50;79.09;97325.14;107178;1279;22639;-89
2023/03/05 06:44:01;;;;;;;26.70;24.00;;;;;;;-1.44;79.14;97325.61;107221;1279;22532;-89
2023/03/05 06:46:32;;;;;;;28.50;25.60;;;;;;;-1.35;79.29;97322.72;107106;1278;23440;-91
2023/03/05 06:49:01;;;;;;;28.70;25.80;;;;;;;-1.31;79.66;97320.15;107191;1279;22566;-91
2023/03/05 06:51:31;;;;;;;32.10;29.00;;;;;;;-1.32;79.93;97319.02;107502;1278;22581;-89
2023/03/05 06:54:03;;;;;;;33.20;30.00;;;;;;;-1.34;79.93;97315.39;107359;1279;22903;-91
2023/03/05 06:56:33;;;;;;;33.90;30.40;;;;;;;-1.35;80.03;97316.22;107650;1279;22557;-90
2023/03/05 06:59:01;;;;;;;33.20;30.10;;;;;;;-1.34;80.64;97314.96;107964;1279;22655;-93
2023/03/05 07:01:29;;;;;;;33.60;30.50;;;;;;;-1.30;80.61;97316.88;107994;1279;22560;-94
2023/03/05 07:03:59;;;;;;;34.50;31.20;;;;;;;-1.24;81.35;97314.72;107935;1279;25104;-92
2023/03/05 07:06:30;;;;;;;36.70;33.30;;;;;;;-1.21;81.49;97316.30;108128;1279;22550;-91
2023/03/05 07:09:00;;;;;;;38.70;34.80;;;;;;;-1.21;81.97;97310.77;109243;1279;22797;-90
2023/03/05 07:11:29;;;;;;;33.50;30.00;;;;;;;-1.21;82.21;97310.77;108035;1279;24429;-90
2023/03/05 07:13:57;;;;;;;32.40;29.20;;;;;;;-1.17;82.89;97311.95;107286;1257;22684;-91
2023/03/05 07:16:29;;;;;;;32.20;29.10;;;;;;;-1.11;82.50;97305.92;108070;1279;22485;-91
2023/03/05 07:18:59;;;;;;;31.60;28.40;;;;;;;-1.01;82.62;97302.59;107602;1278;22553;-88
2023/03/05 07:21:29;;;;;;;35.90;32.40;;;;;;;-0.95;82.97;97299.89;108836;1279;22472;-86
2023/03/05 07:24:00;;;;;;;33.70;30.60;;;;;;;-0.91;82.94;97298.10;108403;1279;22593;-91
2023/03/05 07:26:29;;;;;;;30.90;27.80;;;;;;;-0.89;83.30;97298.50;107673;1279;23877;-89
2023/03/05 07:28:58;;;;;;;27.70;24.90;;;;;;;-0.87;83.52;97297.27;107238;1279;22614;-89
2023/03/05 07:31:29;;;;;;;29.40;26.40;;;;;;;-0.79;84.67;97297.13;107345;1279;22524;-91
2023/03/05 07:34:00;;;;;;;31.20;28.10;;;;;;;-0.82;84.51;97292.96;107327;1279;22654;-89
2023/03/05 07:36:30;;;;;;;30.50;27.70;;;;;;;-0.83;84.12;97287.80;107462;1278;22680;-88
2023/03/05 07:38:58;;;;;;;30.90;27.70;;;;;;;-0.80;84.16;97288.27;107186;1279;22643;-91
2023/03/05 07:41:26;;;;;;;28.90;26.30;;;;;;;-0.81;84.31;97286.42;107193;1279;24503;-91
2023/03/05 07:43:55;;;;;;;29.50;26.50;;;;;;;-0.76;84.65;97278.50;107193;1279;23386;-91
2023/03/05 07:46:27;;;;;;;25.00;22.50;;;;;;;-0.73;84.68;97279.45;107226;1279;22632;-90
2023/03/05 07:48:55;;;;;;;24.70;22.30;;;;;;;-0.72;84.31;97277.41;107205;1279;22526;-90
2023/03/05 07:51:26;;;;;;;23.50;21.20;;;;;;;-0.74;84.31;97278.48;107487;1279;22658;-89
2023/03/05 07:53:56;;;;;;;22.80;20.60;;;;;;;-0.74;84.45;97276.05;108581;1279;24245;-88
2023/03/05 07:56:31;;;;;;;23.90;21.70;;;;;;;-0.74;84.59;97269.75;107893;1279;25409;-88
2023/03/05 07:59:01;;;;;;;25.30;22.90;;;;;;;-0.71;84.63;97272.60;107297;1278;25410;-89
2023/03/05 08:01:31;;;;;;;24.60;22.30;;;;;;;-0.67;84.42;97270.54;107641;1279;22521;-91
2023/03/05 08:04:01;;;;;;;23.10;20.60;;;;;;;-0.64;84.28;97262.65;107896;1279;22524;-88
2023/03/05 08:06:29;;;;;;;22.10;19.90;;;;;;;-0.58;84.42;97259.64;108122;1279;22707;-88
2023/03/05 08:08:57;;;;;;;25.10;22.40;;;;;;;-0.56;84.78;97261.30;107750;1279;22472;-91
2023/03/05 08:11:27;;;;;;;27.40;24.90;;;;;;;-0.57;84.81;97260.38;107533;1279;23091;-91
2023/03/05 08:13:58;;;;;;;31.20;28.30;;;;;;;-0.53;84.68;97263.23;107771;1278;22525;-92
2023/03/05 08:16:27;;;;;;;30.00;27.10;;;;;;;-0.50;84.68;97260.17;108562;1279;23897;-91
2023/03/05 08:18:56;;;;;;;31.40;28.40;;;;;;;-0.47;85.03;97257.40;108907;1278;22535;-88
2023/03/05 08:21:35;;;;;;;34.60;31.70;;;;;;;-0.42;85.32;97258.27;108345;1279;24132;-92
2023/03/05 08:24:06;;;;;;;33.30;30.40;;;;;;;-0.39;85.44;97258.50;108227;1278;22570;-89
2023/03/05 08:26:37;;;;;;;37.50;34.40;;;;;;;-0.40;85.29;97255.68;107393;1277;22542;-90
2023/03/05 08:29:09;;;;;;;35.40;32.20;;;;;;;-0.37;85.27;97256.58;107941;1279;22563;-88
2023/03/05 08:31:38;;;;;;;32.90;29.90;;;;;;;-0.34;85.45;97258.52;107934;1279;22746;-91
2023/03/05 08:34:06;;;;;;;38.20;34.80;;;;;;;-0.33;85.66;97258.76;108193;1279;22980;-91
2023/03/05 08:36:34;;;;;;;40.10;36.60;;;;;;;-0.30;85.82;97257.58;107322;1279;24239;-89
2023/03/05 08:39:02;;;;;;;41.40;37.90;;;;;;;-0.29;85.66;97258.92;107090;1279;22651;-88
2023/03/05 08:41:31;;;;;;;38.20;34.90;;;;;;;-0.27;85.58;97251.95;107252;1278;25338;-87
2023/03/05 08:43:59;;;;;;;33.60;30.50;;;;;;;-0.24;85.73;97252.09;108166;1279;23895;-90
2023/03/05 08:46:28;;;;;;;33.20;30.30;;;;;;;-0.21;86.11;97250.23;109223;1278;22574;-90
2023/03/05 08:48:56;;;;;;;32.70;29.70;;;;;;;-0.16;86.16;97243.36;107324;1279;22531;-90
2023/03/05 08:51:25;;;;;;;34.30;31.20;;;;;;;-0.10;86.22;97236.66;107406;1279;22524;-90
2023/03/05 08:53:57;;;;;;;35.30;32.10;;;;;;;-0.06;86.14;97237.65;107175;1279;24282;-91
2023/03/05 08:56:27;;;;;;;36.40;33.20;;;;;;;-0.04;85.84;97236.30;107335;1278;24229;-90
2023/03/05 08:58:55;;;;;;;33.30;30.30;;;;;;;-0.02;85.81;97233.73;107119;1278;23502;-90
2023/03/05 09:01:23;;;;;;;33.10;30.10;;;;;;;0.06;86.14;97231.86;107103;1278;22680;-90
2023/03/05 09:03:52;;;;;;;35.40;32.10;;;;;;;0.11;86.07;97233.88;107093;1278;24258;-89
2023/03/05 09:06:21;;;;;;;40.30;36.70;;;;;;;0.16;85.97;97229.39;107028;1278;22478;-90
2023/03/05 09:08:49;;;;;;;40.50;36.90;;;;;;;0.19;85.96;97227.67;107160;1278;22560;-89
2023/03/05 09:11:17;;;;;;;40.10;36.60;;;;;;;0.17;85.65;97228.86;107287;1279;22633;-91
2023/03/05 09:13:45;;;;;;;31.60;28.60;;;;;;;0.17;85.93;97220.97;107891;1278;22527;-91
2023/03/05 09:16:16;;;;;;;28.00;25.40;;;;;;;0.23;86.05;97218.12;107526;1279;25429;-87
2023/03/05 09:18:44;;;;;;;31.30;28.40;;;;;;;0.24;86.13;97220.09;108114;1278;23294;-92
2023/03/05 09:21:17;;;;;;;32.60;29.80;;;;;;;0.24;85.88;97219.89;107883;1278;23281;-88
2023/03/05 09:23:46;;;;;;;31.40;28.30;;;;;;;0.23;85.65;97218.23;109128;1278;22546;-89
2023/03/05 09:26:17;;;;;;;30.50;27.70;;;;;;;0.22;85.88;97219.02;109201;1278;22545;-90
2023/03/05 09:28:48;;;;;;;34.40;31.20;;;;;;;0.22;85.91;97213.34;108561;1278;22598;-92
2023/03/05 09:31:16;;;;;;;32.20;29.10;;;;;;;0.24;86.02;97213.00;108086;1278;22590;-91
2023/03/05 09:33:47;;;;;;;34.20;31.10;;;;;;;0.23;85.74;97215.52;107947;1279;22550;-90
2023/03/05 09:36:19;;;;;;;34.80;31.60;;;;;;;0.23;85.65;97212.30;108263;1279;22542;-90
2023/03/05 09:38:47;;;;;;;30.40;27.60;;;;;;;0.24;85.90;97208.65;107664;1278;24313;-90
2023/03/05 09:41:36;;;;;;;31.40;28.60;;;;;;;0.26;86.12;97208.24;108021;1278;22544;-91
2023/03/05 09:44:47;;;;;;;31.50;28.40;;;;;;;0.32;86.36;97206.66;109009;1277;22127;-88
2023/03/05 09:47:25;;;;;;;33.40;30.30;;;;;;;0.36;86.13;97203.58;109323;1287;22905;-83
2023/03/05 09:50:34;;;;;;;35.90;32.30;;;;;;;0.42;86.18;97201.67;110524;1276;22567;-86
2023/03/05 09:53:11;;;;;;;;;;;;;;;0.49;86.42;97203.00;110017;1276;22517;-87
2023/03/05 09:55:43;;;;;;;35.20;31.80;;;;;;;0.51;86.67;97203.25;110367;1276;22422;-87
2023/03/05 09:58:17;;;;;;;31.50;28.50;;;;;;;0.50;86.48;97206.52;109579;1277;22535;-88
2023/03/05 10:00:53;;;;;;;33.70;30.50;;;;;;;0.48;86.34;97202.27;109308;1267;22575;-87
2023/03/05 10:04:14;;;;;;;34.40;31.20;;;;;;;0.49;86.38;97203.42;107796;1276;23796;-90
2023/03/05 10:07:07;;;;;;;30.30;27.30;;;;;;;0.52;86.68;97201.61;107490;1276;22590;-89
2023/03/05 10:09:56;;;;;;;32.70;29.80;;;;;;;0.57;86.98;97192.81;108735;1276;22610;-91
2023/03/05 10:12:33;;;;;;;37.80;34.40;;;;;;;0.58;86.85;97189.10;109165;1276;22585;-86
2023/03/05 10:15:02;;;;;;;35.10;31.70;;;;;;;0.57;86.70;97185.91;108447;1276;22490;-91
2023/03/05 10:17:48;;;;;;;35.40;32.00;;;;;;;0.58;86.64;97186.98;108570;1276;22548;-90
2023/03/05 10:20:49;;;;;;;33.10;30.00;;;;;;;0.55;86.94;97180.27;108941;1276;22558;-93
2023/03/05 10:23:45;;;;;;;35.20;32.00;;;;;;;0.56;87.43;97175.98;106541;1266;3073453;-90
2023/03/05 10:26:35;;;;;;;35.80;32.40;;;;;;;0.56;87.36;97173.70;108282;1263;22521;-91
2023/03/05 10:29:15;;;;;;;33.80;30.70;;;;;;;0.56;87.23;97167.06;107757;1276;22544;-88
2023/03/05 10:32:01;;;;;;;38.10;33.90;;;;;;;0.52;87.64;97165.23;107593;1276;24685;-89
2023/03/05 10:34:45;;;;;;;34.10;31.00;;;;;;;0.50;88.26;97162.09;108956;1276;22525;-88
2023/03/05 10:37:59;;;;;;;36.40;33.00;;;;;;;0.46;88.36;97160.57;107700;1276;24179;-93
2023/03/05 10:40:33;;;;;;;35.30;32.10;;;;;;;0.36;88.43;97153.70;109659;1250;22299;-88
2023/03/05 10:43:26;;;;;;;36.90;33.20;;;;;;;0.31;88.78;97161.50;110260;1276;23130;-88
2023/03/05 10:45:57;;;;;;;36.60;32.90;;;;;;;0.32;89.86;97168.39;109315;1276;24206;-87
2023/03/05 10:48:40;;;;;;;34.50;31.20;;;;;;;0.25;90.86;97162.61;107674;1276;24213;-89
2023/03/05 10:51:17;;;;;;;36.00;32.30;;;;;;;0.12;91.15;97161.73;107978;1276;22552;-90
2023/03/05 10:53:56;;;;;;;41.10;37.10;;;;;;;0.03;92.05;97159.99;107911;1276;24180;-90
2023/03/05 10:56:28;;;;;;;38.00;34.30;;;;;;;-0.02;91.87;97157.09;109145;1276;22546;-91
2023/03/05 10:58:56;;;;;;;38.00;34.40;;;;;;;-0.02;92.69;97151.89;109886;1276;22544;-87
2023/03/05 11:01:30;;;;;;;41.70;37.50;;;;;;;-0.05;93.31;97152.34;109799;1276;23037;-87
2023/03/05 11:04:02;;;;;;;35.10;31.70;;;;;;;-0.11;93.19;97151.27;110518;1251;22616;-89
2023/03/05 11:06:42;;;;;;;32.50;29.40;;;;;;;-0.08;93.41;97152.25;109671;1276;22486;-89
2023/03/05 11:09:16;;;;;;;37.10;33.70;;;;;;;-0.02;94.23;97154.70;108459;1276;25290;-91
2023/03/05 11:12:11;;;;;;;34.30;31.00;;;;;;;0.00;94.33;97152.61;108434;1276;22533;-90
2023/03/05 11:14:41;;;;;;;;;;;;;;;0.01;94.53;97141.55;108634;1271;25909;-89
2023/03/05 11:17:36;;;;;;;24.10;21.70;;;;;;;0.00;94.34;97144.56;109404;1276;22652;-84
2023/03/05 11:20:47;;;;;;;25.80;22.80;;;;;;;-0.00;93.93;97139.63;107888;1276;25217;-91
2023/03/05 11:24:22;;;;;;;23.50;21.00;;;;;;;-0.07;93.07;97142.02;107370;1275;22544;-89
2023/03/05 11:28:14;;;;;;;20.10;17.90;;;;;;;-0.13;91.77;97136.38;109242;1278;23054;-89
2023/03/05 11:32:03;;;;;;;21.50;19.00;;;;;;;-0.17;90.96;97128.32;109892;1281;22570;-86
2023/03/05 11:36:00;;;;;;;23.10;20.70;;;;;;;-0.11;90.72;97127.48;108883;1288;22565;-89
2023/03/05 11:39:33;;;;;;;21.10;18.80;;;;;;;-0.13;90.03;97126.19;108443;1288;24110;-90
2023/03/05 11:43:19;;;;;;;20.00;15.90;;;;;;;-0.16;89.78;97123.67;108377;1289;22916;-88